Automated Weather Station

Magsaysay, Infanta, Quezon


Readings

as of November 11, 2016 04:01 PM
Wind Speed
3.4 mm
Rainfall Amount
0.14 mm
Rainfall Intensity
11.3 mm
Air Temperature
mm
Wind Direction
96 mm
Air Humidity
97.7 mm

Data Source: PREDICT (Advanced Science and Technology Institute)

12 HOUR DATA

PREVIOUS DATA

From
To
DateTime Wind Speed Rain Amount Rain Intensity Air Temperature Air Pressure Wind Direction Air Humidity
October 26, 2016 03:01 PM 15.5 0 mm 0 22.2 927.77 37 98.6
October 26, 2016 02:01 PM 7.8 0 mm 0 24.2 927.37 41 90.8
October 26, 2016 01:01 PM 12.8 0 mm 0 23.9 928.03 16 93
October 26, 2016 11:01 AM 12 0 mm 0 22.9 929.77 35 98.9
October 26, 2016 10:01 AM 9.6 0 mm 0 22.4 930.43 48 99.4
October 26, 2016 09:01 AM 10.2 0 mm 0 22.5 930.83 38 99.5
October 26, 2016 08:03 AM 9.3 0 mm 0 22 930.97 33 99.4
October 26, 2016 07:01 AM 6.1 0 mm 0 21.8 930.7 34 99.4
October 26, 2016 06:02 AM 11.6 0.01 mm 0 21.8 929.63 52 99.3
October 26, 2016 05:01 AM 16.5 0 mm 0 21.4 928.57 29 99.2
October 26, 2016 04:01 AM 12.4 0 mm 0 21.1 928.03 346 99.1
October 26, 2016 03:01 AM 14.2 0 mm 0 21.7 928.03 53 99.2
October 26, 2016 02:01 AM 9.3 0.18 mm 12.5 21.7 928.17 37 99.1
October 26, 2016 01:01 AM 12.2 0.04 mm 3 21.7 928.43 22 98.9
October 26, 2016 12:02 AM 11.1 0 mm 0 21.6 929.1 57 97.3
October 25, 2016 09:01 AM 8.1 0 mm 0 23.9 929.37 45 86.4
October 25, 2016 08:01 AM 9.8 0 mm 0 23.7 928.7 77 89
October 25, 2016 07:01 AM 11.7 0 mm 0 22.2 929.23 97 93.4
October 25, 2016 06:01 AM 10.3 0 mm 0 21.2 928.7 6 91.7
October 25, 2016 05:01 AM 12.8 0 mm 0 20.2 928.43 89 91.2
October 25, 2016 03:01 AM 7.3 0 mm 0 20.6 927.5 34 94
October 25, 2016 02:01 AM 6.5 0 mm 0 20.4 927.24 47 94.9
October 25, 2016 01:01 AM 10.6 0 mm 0 21.1 927.24 52 99.1
October 25, 2016 12:01 AM 8.7 0 mm 0 20.7 927.63 43 99.1
October 23, 2016 02:02 PM 9.2 0 mm 0 25.3 926.03 93 86.3
October 23, 2016 01:01 PM 9.4 0 mm 0 25.4 926.3 88 84.3
October 23, 2016 12:02 PM 8.4 0 mm 0 24.7 927.24 88 87.5
October 23, 2016 11:01 AM 9.4 0 mm 0 25.8 927.5 93 87.1
October 23, 2016 10:02 AM 10.6 0 mm 0 25 929.1 89 86.2
October 23, 2016 09:01 AM 9.2 0 mm 0 24.3 928.57 123 95